createdAt,value
2018-01-12T04:46:41.134Z,161.53
2018-01-12T04:49:13.024Z,162.27
2018-01-12T04:51:45.665Z,162.23
2018-01-12T04:54:17.551Z,163.80
2018-01-12T04:56:49.428Z,157.93
2018-01-12T04:59:22.088Z,164.87
2018-01-12T05:01:53.964Z,161.47
2018-01-12T05:04:26.623Z,162.23
2018-01-12T05:06:58.504Z,158.17
2018-01-12T05:09:31.164Z,156.97
2018-01-12T05:12:03.848Z,144.27
2018-01-12T05:14:36.517Z,162.20
2018-01-12T05:17:08.410Z,159.03
2018-01-12T05:19:41.086Z,156.87
2018-01-12T05:22:13.737Z,154.00
2018-01-12T05:24:45.631Z,159.77
2018-01-12T05:27:17.527Z,154.50
2018-01-12T05:29:49.704Z,147.53
2018-01-12T05:32:21.583Z,141.67
2018-01-12T05:34:53.479Z,145.57
2018-01-12T05:37:25.364Z,158.40
2018-01-12T05:39:57.457Z,136.57
2018-01-12T05:42:29.333Z,133.27
2018-01-12T05:45:01.226Z,144.63
2018-01-12T05:47:33.104Z,145.57
2018-01-12T05:50:04.988Z,147.97
2018-01-12T05:52:37.630Z,155.53
2018-01-12T05:55:09.532Z,149.70
2018-01-12T05:57:41.411Z,150.67
2018-01-12T06:00:13.552Z,166.57
2018-01-12T06:02:57.178Z,174.40
2018-01-12T06:05:40.995Z,181.50
2018-01-12T06:08:12.864Z,172.23
2018-01-12T06:10:44.755Z,168.40
2018-01-12T06:13:16.874Z,158.83
2018-01-12T06:15:48.778Z,166.07
2018-01-12T06:18:20.656Z,129.90
2018-01-12T06:20:52.560Z,126.60
2018-01-12T06:23:24.439Z,136.17
2018-01-12T06:25:56.520Z,149.10
2018-01-12T06:28:28.390Z,185.47
2018-01-12T06:31:00.289Z,173.07
2018-01-12T06:33:32.930Z,167.37
2018-01-12T06:36:04.824Z,188.87
2018-01-12T06:38:37.535Z,185.73
2018-01-12T06:41:09.443Z,194.57
2018-01-12T06:43:41.328Z,184.77
2018-01-12T06:46:14.000Z,194.83
2018-01-12T06:48:46.635Z,206.03
2018-01-12T06:51:18.552Z,173.77
2018-01-12T06:53:50.426Z,178.97
2018-01-12T06:56:22.524Z,195.53
2018-01-12T06:58:54.401Z,188.87
2018-01-12T07:01:26.303Z,192.87
2018-01-12T07:03:58.299Z,193.97
2018-01-12T07:06:30.367Z,167.07
2018-01-12T07:09:02.239Z,195.50
2018-01-12T07:11:34.140Z,164.90
2018-01-12T07:14:06.776Z,186.30
2018-01-12T07:16:38.894Z,204.00
2018-01-12T07:19:10.767Z,206.53
2018-01-12T07:24:51.683Z,196.03
2018-01-12T07:27:23.570Z,174.10
2018-01-12T07:29:55.447Z,186.30
2018-01-12T07:32:28.102Z,182.87
2018-01-12T07:34:59.979Z,194.50
2018-01-12T07:37:32.639Z,183.90
2018-01-12T07:40:04.516Z,187.57
2018-01-12T07:42:37.170Z,237.37
2018-01-12T07:45:09.046Z,206.27
2018-01-12T07:47:41.957Z,238.33
2018-01-12T07:50:13.834Z,232.43
2018-01-12T07:52:45.735Z,211.23
2018-01-12T07:55:17.606Z,224.27
2018-01-12T07:57:49.491Z,209.03
2018-01-12T08:00:21.368Z,211.10
2018-01-12T08:02:53.246Z,206.57
2018-01-12T08:05:25.123Z,190.57
2018-01-12T08:07:57.019Z,185.80
2018-01-12T08:10:29.662Z,190.17
2018-01-12T08:13:01.565Z,174.57
2018-01-12T08:15:34.202Z,211.30
2018-01-12T08:18:06.110Z,208.53
2018-01-12T08:20:38.036Z,199.57
2018-01-12T08:23:09.915Z,223.40
2018-01-12T08:25:42.551Z,216.37
2018-01-12T08:28:14.446Z,225.43
2018-01-12T08:30:47.086Z,201.07
2018-01-12T08:33:19.209Z,216.03
2018-01-12T08:35:51.851Z,216.07
2018-01-12T08:38:23.767Z,228.27
2018-01-12T08:40:55.653Z,244.67
2018-01-12T08:43:27.542Z,223.13
2018-01-12T08:45:59.415Z,228.10
2018-01-12T08:48:32.370Z,228.03
2018-01-12T08:51:04.287Z,219.30
2018-01-12T08:53:36.391Z,226.73
2018-01-12T08:56:08.263Z,203.43
2018-01-12T08:58:40.156Z,227.17
2018-01-12T09:01:12.792Z,197.87
2018-01-12T09:03:44.696Z,193.00
2018-01-12T09:06:17.328Z,199.30
2018-01-12T09:08:49.232Z,192.10
2018-01-12T09:11:21.867Z,188.30
2018-01-12T09:13:55.546Z,189.77
2018-01-12T09:16:27.421Z,174.90
2018-01-12T09:22:08.855Z,171.37
2018-01-12T09:24:44.634Z,173.20
2018-01-12T09:27:16.510Z,168.80
2018-01-12T09:29:48.398Z,172.77
2018-01-12T09:32:20.262Z,163.83
2018-01-12T09:35:07.031Z,179.90
2018-01-12T09:37:39.863Z,179.53
2018-01-12T09:40:23.502Z,170.30
2018-01-12T09:42:55.370Z,170.03
2018-01-12T09:45:27.292Z,151.87
2018-01-12T09:48:07.838Z,145.27
2018-01-12T09:50:39.731Z,144.67
2018-01-12T09:53:11.611Z,160.87
2018-01-12T09:55:43.497Z,164.40
2018-01-12T09:58:16.134Z,142.37
2018-01-12T10:01:05.757Z,157.17
2018-01-12T10:03:37.582Z,164.53
2018-01-12T10:06:09.467Z,134.30
2018-01-12T10:08:42.120Z,143.80
2018-01-12T10:11:14.166Z,147.63
2018-01-12T10:13:46.042Z,146.30
2018-01-12T10:16:17.939Z,139.13
2018-01-12T10:18:53.650Z,122.93
2018-01-12T10:21:37.657Z,122.33
2018-01-12T10:24:09.538Z,130.80
2018-01-12T10:26:41.698Z,136.77
2018-01-12T10:29:13.583Z,133.20
2018-01-12T10:31:50.221Z,127.70
2018-01-12T10:37:25.327Z,114.63
2018-01-12T10:40:00.996Z,126.77
2018-01-12T10:42:33.659Z,126.80
2018-01-12T10:45:06.298Z,135.13
2018-01-12T10:47:49.254Z,134.23
2018-01-12T10:50:24.675Z,139.70
2018-01-12T10:52:56.568Z,156.93
2018-01-12T10:55:29.213Z,140.37
2018-01-12T10:58:01.109Z,148.63
2018-01-12T11:00:32.986Z,136.83
2018-01-12T11:03:05.078Z,147.73
2018-01-12T11:05:36.943Z,155.30
2018-01-12T11:08:08.842Z,155.20
2018-01-12T11:10:41.487Z,160.47
2018-01-12T11:13:13.382Z,153.77
2018-01-12T11:15:46.023Z,165.03
2018-01-12T11:18:17.931Z,165.73
2018-01-12T11:20:49.810Z,147.90
2018-01-12T11:23:21.708Z,155.50
2018-01-12T11:25:53.587Z,152.20
2018-01-12T11:28:25.487Z,135.10
2018-01-12T11:30:57.355Z,124.03
2018-01-12T11:33:29.252Z,107.10
2018-01-12T11:36:01.125Z,135.23
2018-01-12T11:38:33.024Z,135.93
2018-01-12T11:41:04.903Z,128.17
2018-01-12T11:43:36.802Z,139.10
2018-01-12T11:46:08.679Z,146.77
2018-01-12T11:48:41.327Z,142.23
2018-01-12T11:51:13.204Z,139.57
2018-01-12T11:53:45.118Z,136.33
2018-01-12T11:56:16.982Z,145.27
2018-01-12T11:58:48.909Z,140.90
2018-01-12T12:01:20.788Z,140.00
2018-01-12T12:03:52.683Z,147.83
2018-01-12T12:06:24.554Z,117.03
2018-01-12T12:08:56.455Z,118.40
2018-01-12T12:11:28.412Z,142.60
2018-01-12T12:14:01.062Z,139.83
2018-01-12T12:16:32.943Z,137.30
2018-01-12T12:19:05.610Z,148.70
2018-01-12T12:21:38.254Z,145.83
2018-01-12T12:24:10.142Z,151.53
2018-01-12T12:26:42.024Z,146.00
2018-01-12T12:29:14.675Z,153.73
2018-01-12T12:31:46.568Z,139.17
2018-01-12T12:34:19.242Z,142.43
2018-01-12T12:36:51.886Z,132.50
2018-01-12T12:39:23.790Z,133.53
2018-01-12T12:41:55.662Z,145.23
2018-01-12T12:44:27.572Z,141.83
2018-01-12T12:46:59.436Z,132.50
2018-01-12T12:49:31.322Z,122.37
2018-01-12T12:52:03.195Z,136.73
2018-01-12T12:54:35.140Z,143.30
2018-01-12T12:57:07.775Z,148.77
2018-01-12T12:59:39.670Z,142.37
2018-01-12T13:02:12.314Z,149.17
2018-01-12T13:04:44.205Z,149.77
2018-01-12T13:07:16.866Z,156.03
2018-01-12T13:09:49.015Z,155.70
2018-01-12T13:12:21.950Z,144.80
2018-01-12T13:14:53.850Z,156.07
2018-01-12T13:17:25.726Z,160.70
2018-01-12T13:19:57.627Z,137.20
2018-01-12T13:22:30.263Z,147.23
2018-01-12T13:25:02.163Z,163.87
2018-01-12T13:27:34.803Z,155.40
2018-01-12T13:30:06.704Z,155.53
2018-01-12T13:32:39.387Z,157.63
2018-01-12T13:35:12.039Z,157.90
2018-01-12T13:37:43.926Z,138.27
2018-01-12T13:40:15.822Z,150.93
2018-01-12T13:42:47.715Z,155.33
2018-01-12T13:45:19.602Z,160.77
2018-01-12T13:47:52.238Z,158.57
2018-01-12T13:50:24.142Z,155.63
2018-01-12T13:52:56.010Z,154.03
2018-01-12T13:55:27.975Z,153.53
2018-01-12T13:57:59.856Z,150.37
2018-01-12T14:00:31.760Z,149.23
2018-01-12T14:03:03.634Z,150.97
2018-01-12T14:05:36.458Z,146.20
2018-01-12T14:08:08.338Z,138.50
2018-01-12T14:10:40.226Z,137.17
2018-01-12T14:13:12.095Z,132.07
2018-01-12T14:15:44.755Z,133.70
2018-01-12T14:18:16.642Z,132.67
2018-01-12T14:20:49.308Z,137.60
2018-01-12T14:23:21.172Z,123.37
2018-01-12T14:25:54.018Z,132.10
2018-01-12T14:28:25.886Z,127.93
2018-01-12T14:30:57.780Z,124.23
2018-01-12T14:33:30.410Z,120.73
2018-01-12T14:36:02.294Z,132.23
2018-01-12T14:38:34.172Z,119.97
2018-01-12T14:41:06.831Z,125.93
2018-01-12T14:43:38.699Z,123.37
2018-01-12T14:46:10.840Z,134.87
2018-01-12T14:48:42.711Z,127.23
2018-01-12T14:51:14.615Z,123.83
2018-01-12T14:53:46.483Z,119.47
2018-01-12T14:56:18.582Z,112.17
2018-01-12T14:58:51.226Z,111.20
2018-01-12T15:01:23.143Z,113.63
2018-01-12T15:03:55.006Z,120.57
2018-01-12T15:06:26.898Z,122.77
2018-01-12T15:08:58.776Z,127.67
2018-01-12T15:11:30.678Z,132.45
2018-01-12T15:14:02.572Z,128.55
2018-01-12T15:16:35.246Z,127.60
2018-01-12T15:19:07.886Z,136.30
2018-01-12T15:21:39.782Z,123.75
2018-01-12T15:24:12.418Z,106.80
2018-01-12T15:26:45.507Z,124.43
2018-01-12T15:29:17.387Z,141.27
2018-01-12T15:31:49.297Z,133.60
2018-01-12T15:34:21.172Z,129.43
2018-01-12T15:36:53.054Z,129.27
2018-01-12T15:39:24.931Z,146.80
2018-01-12T15:41:56.832Z,129.07
2018-01-12T15:44:28.705Z,134.70
2018-01-12T15:47:00.599Z,131.07
2018-01-12T15:49:32.483Z,123.30
2018-01-12T15:52:04.366Z,129.53
2018-01-12T15:54:36.250Z,139.63
2018-01-12T15:57:08.136Z,133.97
2018-01-12T15:59:41.067Z,113.07
2018-01-12T16:02:12.989Z,138.63
2018-01-12T16:04:44.874Z,145.30
2018-01-12T16:07:17.565Z,120.97
2018-01-12T16:09:50.204Z,147.07
2018-01-12T16:12:22.358Z,135.37
2018-01-12T16:14:54.235Z,141.63
2018-01-12T16:17:26.131Z,124.10
2018-01-12T16:19:58.005Z,135.87
2018-01-12T16:22:30.167Z,132.80
2018-01-12T16:25:02.042Z,111.03
2018-01-12T16:27:33.949Z,133.90
2018-01-12T16:30:05.874Z,137.67
2018-01-12T16:32:37.771Z,130.60
2018-01-12T16:35:09.642Z,119.40
2018-01-12T16:37:42.311Z,128.90
2018-01-12T16:40:14.191Z,128.60
2018-01-12T16:42:46.855Z,137.70
2018-01-12T16:45:19.495Z,133.73
2018-01-12T16:47:51.634Z,141.03
2018-01-12T16:50:23.495Z,131.63
2018-01-12T16:52:55.402Z,133.53
2018-01-12T16:55:27.278Z,135.27
2018-01-12T16:57:59.963Z,130.20
2018-01-12T17:00:31.839Z,142.60
2018-01-12T17:03:04.500Z,137.87
2018-01-12T17:05:37.139Z,139.73
2018-01-12T17:08:09.157Z,142.07
2018-01-12T17:10:41.787Z,144.80
2018-01-12T17:13:14.476Z,149.90
2018-01-12T17:15:46.352Z,147.87
2018-01-12T17:18:18.264Z,151.63
2018-01-12T17:20:50.139Z,161.03
2018-01-12T17:23:22.026Z,143.67
2018-01-12T17:25:54.679Z,147.03
2018-01-12T17:28:26.574Z,149.80
2018-01-12T17:30:58.492Z,156.67
2018-01-12T17:33:30.623Z,162.40
2018-01-12T17:36:02.499Z,158.97
2018-01-12T17:38:34.404Z,171.60
2018-01-12T17:41:06.279Z,148.00
2018-01-12T17:43:39.127Z,168.90
2018-01-12T17:46:11.002Z,171.57
2018-01-12T17:48:42.903Z,157.70
2018-01-12T17:51:14.774Z,165.33
2018-01-12T17:53:46.675Z,167.33
2018-01-12T17:56:18.543Z,159.33
2018-01-12T17:58:50.604Z,156.10
2018-01-12T18:01:22.478Z,165.37
2018-01-12T18:03:54.375Z,166.03
2018-01-12T18:06:26.260Z,162.93
2018-01-12T18:08:58.447Z,159.80
2018-01-12T18:11:30.327Z,175.33
2018-01-12T18:14:02.223Z,178.87
2018-01-12T18:16:34.103Z,190.00
2018-01-12T18:19:06.186Z,185.03
2018-01-12T18:21:38.076Z,186.77
2018-01-12T18:24:10.321Z,158.70
2018-01-12T18:26:42.152Z,173.33
2018-01-12T18:29:14.047Z,163.67
2018-01-12T18:31:45.931Z,160.90
2018-01-12T18:34:18.779Z,192.53
2018-01-12T18:36:50.650Z,173.87
2018-01-12T18:39:22.538Z,169.83
2018-01-12T18:41:55.184Z,187.67
2018-01-12T18:44:27.077Z,178.83
2018-01-12T18:46:59.766Z,165.83
2018-01-12T18:49:32.417Z,170.07
2018-01-12T18:52:04.288Z,176.87
2018-01-12T18:54:36.951Z,184.70
2018-01-12T18:57:08.818Z,172.13
2018-01-12T18:59:40.895Z,181.97
2018-01-12T19:02:12.775Z,169.30
2018-01-12T19:04:44.696Z,171.43
2018-01-12T19:07:16.566Z,195.70
2018-01-12T19:09:49.219Z,180.67
2018-01-12T19:12:21.100Z,173.43
2018-01-12T19:14:52.998Z,167.37
2018-01-12T19:17:24.871Z,160.83
2018-01-12T19:19:56.765Z,158.87
2018-01-12T19:22:28.642Z,165.17
2018-01-12T19:25:00.539Z,154.47
2018-01-12T19:27:32.419Z,165.23
2018-01-12T19:30:04.320Z,168.33
2018-01-12T19:32:36.190Z,155.20
2018-01-12T19:35:08.860Z,172.27
2018-01-12T19:37:40.737Z,160.03
2018-01-12T19:40:13.386Z,174.60
2018-01-12T19:42:45.267Z,166.13
2018-01-12T19:45:17.947Z,165.73
2018-01-12T19:47:49.815Z,180.40
2018-01-12T19:50:22.474Z,163.03
2018-01-12T19:52:54.357Z,162.37
2018-01-12T19:55:27.191Z,174.77
2018-01-12T19:57:59.059Z,172.30
2018-01-12T20:00:30.957Z,166.60
2018-01-12T20:03:03.602Z,157.87
2018-01-12T20:05:35.491Z,157.33
2018-01-12T20:08:08.127Z,179.17
2018-01-12T20:10:40.015Z,158.60
2018-01-12T20:13:12.663Z,152.17
2018-01-12T20:15:44.552Z,161.13
2018-01-12T20:18:16.422Z,160.50
2018-01-12T20:20:49.098Z,162.47
2018-01-12T20:23:20.962Z,165.30
2018-01-12T20:25:53.624Z,164.77
2018-01-12T20:28:25.499Z,161.37
2018-01-12T20:30:58.178Z,168.17
2018-01-12T20:33:30.811Z,165.57
2018-01-12T20:36:03.702Z,159.40
2018-01-12T20:38:35.579Z,162.57
2018-01-12T20:41:07.492Z,163.50
2018-01-12T20:43:39.362Z,159.93
2018-01-12T20:46:11.403Z,156.17
2018-01-12T20:48:43.285Z,150.50
2018-01-12T20:51:15.163Z,142.13
2018-01-12T20:53:47.038Z,146.37
2018-01-12T20:56:19.191Z,151.50
2018-01-12T20:58:51.059Z,156.93
2018-01-12T21:01:23.743Z,158.67
2018-01-12T21:03:55.616Z,161.40
2018-01-12T21:06:27.530Z,169.83
2018-01-12T21:08:59.405Z,158.93
2018-01-12T21:11:31.295Z,168.83
2018-01-12T21:14:03.173Z,174.93
2018-01-12T21:16:35.835Z,171.07
2018-01-12T21:19:07.706Z,175.00
2018-01-12T21:21:40.358Z,163.53
2018-01-12T21:24:12.252Z,157.67
2018-01-12T21:26:44.903Z,152.53
2018-01-12T21:29:16.778Z,162.37
2018-01-12T21:31:49.439Z,164.47
2018-01-12T21:34:21.348Z,147.57
2018-01-12T21:36:53.250Z,154.43
2018-01-12T21:39:25.126Z,140.33
2018-01-12T21:41:57.272Z,139.80
2018-01-12T21:44:29.164Z,138.90
2018-01-12T21:47:01.059Z,137.47
2018-01-12T21:49:33.214Z,131.10
2018-01-12T21:52:05.107Z,135.90
2018-01-12T21:54:36.979Z,127.87
2018-01-12T21:57:08.876Z,127.47
2018-01-12T21:59:41.513Z,122.80
2018-01-12T22:02:13.419Z,133.77
2018-01-12T22:04:46.059Z,133.30
2018-01-12T22:07:17.955Z,136.83
2018-01-12T22:09:50.597Z,113.73
2018-01-12T22:12:22.495Z,133.37
2018-01-12T22:14:55.131Z,117.63
2018-01-12T22:17:27.803Z,108.43
